sensor_id;sensor_type;location;lat;lon;timestamp;P1;durP1;ratioP1;P2;durP2;ratioP2
55800;SDS011;41730;51.960;20.158;2023-08-31T00:01:26;4.90;;;4.20;;
55800;SDS011;41730;51.960;20.158;2023-08-31T00:03:58;5.80;;;4.90;;
55800;SDS011;41730;51.960;20.158;2023-08-31T00:06:32;5.10;;;4.60;;
55800;SDS011;41730;51.960;20.158;2023-08-31T00:09:04;8.50;;;5.50;;
55800;SDS011;41730;51.960;20.158;2023-08-31T00:11:37;5.80;;;5.10;;
55800;SDS011;41730;51.960;20.158;2023-08-31T00:14:09;7.50;;;4.90;;
55800;SDS011;41730;51.960;20.158;2023-08-31T00:16:41;6.20;;;5.00;;
55800;SDS011;41730;51.960;20.158;2023-08-31T00:19:15;6.90;;;4.50;;
55800;SDS011;41730;51.960;20.158;2023-08-31T00:21:47;6.20;;;4.80;;
55800;SDS011;41730;51.960;20.158;2023-08-31T00:24:18;5.20;;;4.50;;
55800;SDS011;41730;51.960;20.158;2023-08-31T00:30:20;8.30;;;4.30;;
55800;SDS011;41730;51.960;20.158;2023-08-31T00:32:56;5.70;;;4.40;;
55800;SDS011;41730;51.960;20.158;2023-08-31T00:35:53;6.90;;;4.40;;
55800;SDS011;41730;51.960;20.158;2023-08-31T00:38:25;5.90;;;4.50;;
55800;SDS011;41730;51.960;20.158;2023-08-31T00:40:57;5.40;;;3.70;;
55800;SDS011;41730;51.960;20.158;2023-08-31T00:43:30;5.20;;;3.70;;
55800;SDS011;41730;51.960;20.158;2023-08-31T00:46:02;4.50;;;3.60;;
55800;SDS011;41730;51.960;20.158;2023-08-31T00:48:34;7.70;;;3.70;;
55800;SDS011;41730;51.960;20.158;2023-08-31T00:51:06;4.80;;;3.40;;
55800;SDS011;41730;51.960;20.158;2023-08-31T00:53:39;5.40;;;3.60;;
55800;SDS011;41730;51.960;20.158;2023-08-31T00:56:13;4.80;;;3.10;;
55800;SDS011;41730;51.960;20.158;2023-08-31T00:58:46;4.30;;;3.70;;
55800;SDS011;41730;51.960;20.158;2023-08-31T01:01:20;5.80;;;3.50;;
55800;SDS011;41730;51.960;20.158;2023-08-31T01:04:00;4.10;;;3.50;;
55800;SDS011;41730;51.960;20.158;2023-08-31T01:06:41;3.80;;;3.20;;
55800;SDS011;41730;51.960;20.158;2023-08-31T01:09:26;4.60;;;3.60;;
55800;SDS011;41730;51.960;20.158;2023-08-31T01:12:06;6.40;;;3.70;;
55800;SDS011;41730;51.960;20.158;2023-08-31T01:14:41;4.30;;;3.60;;
55800;SDS011;41730;51.960;20.158;2023-08-31T01:17:17;4.40;;;3.60;;
55800;SDS011;41730;51.960;20.158;2023-08-31T01:19:50;5.40;;;3.60;;
55800;SDS011;41730;51.960;20.158;2023-08-31T01:22:27;4.00;;;3.40;;
55800;SDS011;41730;51.960;20.158;2023-08-31T01:25:03;3.90;;;3.40;;
55800;SDS011;41730;51.960;20.158;2023-08-31T01:27:37;4.00;;;2.90;;
55800;SDS011;41730;51.960;20.158;2023-08-31T01:30:10;4.80;;;3.10;;
55800;SDS011;41730;51.960;20.158;2023-08-31T01:32:44;3.70;;;2.80;;
55800;SDS011;41730;51.960;20.158;2023-08-31T01:35:16;3.90;;;2.90;;
55800;SDS011;41730;51.960;20.158;2023-08-31T01:37:49;4.70;;;2.90;;
55800;SDS011;41730;51.960;20.158;2023-08-31T01:40:25;3.90;;;2.60;;
55800;SDS011;41730;51.960;20.158;2023-08-31T01:43:02;3.80;;;3.20;;
55800;SDS011;41730;51.960;20.158;2023-08-31T01:45:36;3.00;;;2.60;;
55800;SDS011;41730;51.960;20.158;2023-08-31T01:48:08;5.40;;;2.90;;
55800;SDS011;41730;51.960;20.158;2023-08-31T01:50:40;4.90;;;3.50;;
55800;SDS011;41730;51.960;20.158;2023-08-31T01:53:12;3.40;;;2.80;;
55800;SDS011;41730;51.960;20.158;2023-08-31T01:55:44;3.40;;;2.70;;
55800;SDS011;41730;51.960;20.158;2023-08-31T01:58:15;3.40;;;2.60;;
55800;SDS011;41730;51.960;20.158;2023-08-31T02:01:11;3.50;;;2.70;;
55800;SDS011;41730;51.960;20.158;2023-08-31T02:03:43;4.20;;;2.40;;
55800;SDS011;41730;51.960;20.158;2023-08-31T02:06:14;3.70;;;3.10;;
55800;SDS011;41730;51.960;20.158;2023-08-31T02:08:46;5.10;;;2.60;;
55800;SDS011;41730;51.960;20.158;2023-08-31T02:11:18;4.10;;;2.50;;
55800;SDS011;41730;51.960;20.158;2023-08-31T02:13:49;4.30;;;2.60;;
55800;SDS011;41730;51.960;20.158;2023-08-31T02:16:21;4.10;;;3.00;;
55800;SDS011;41730;51.960;20.158;2023-08-31T02:18:53;4.40;;;2.70;;
55800;SDS011;41730;51.960;20.158;2023-08-31T02:21:24;5.10;;;3.10;;
55800;SDS011;41730;51.960;20.158;2023-08-31T02:23:56;5.40;;;3.30;;
55800;SDS011;41730;51.960;20.158;2023-08-31T02:26:51;5.40;;;3.00;;
55800;SDS011;41730;51.960;20.158;2023-08-31T02:29:23;4.30;;;3.10;;
55800;SDS011;41730;51.960;20.158;2023-08-31T02:31:55;6.80;;;3.90;;
55800;SDS011;41730;51.960;20.158;2023-08-31T02:34:28;6.20;;;3.80;;
55800;SDS011;41730;51.960;20.158;2023-08-31T02:37:00;5.60;;;3.50;;
55800;SDS011;41730;51.960;20.158;2023-08-31T02:39:56;4.70;;;3.50;;
55800;SDS011;41730;51.960;20.158;2023-08-31T02:42:52;6.80;;;4.70;;
55800;SDS011;41730;51.960;20.158;2023-08-31T02:45:24;6.80;;;4.70;;
55800;SDS011;41730;51.960;20.158;2023-08-31T02:47:55;7.80;;;4.80;;
55800;SDS011;41730;51.960;20.158;2023-08-31T02:53:20;8.10;;;5.50;;
55800;SDS011;41730;51.960;20.158;2023-08-31T02:55:52;8.10;;;5.90;;
55800;SDS011;41730;51.960;20.158;2023-08-31T02:58:24;7.20;;;6.20;;
55800;SDS011;41730;51.960;20.158;2023-08-31T03:00:57;7.40;;;5.40;;
55800;SDS011;41730;51.960;20.158;2023-08-31T03:03:40;8.80;;;6.40;;
55800;SDS011;41730;51.960;20.158;2023-08-31T03:08:45;9.40;;;6.60;;
55800;SDS011;41730;51.960;20.158;2023-08-31T03:11:16;8.70;;;6.70;;
55800;SDS011;41730;51.960;20.158;2023-08-31T03:13:48;10.80;;;7.90;;
55800;SDS011;41730;51.960;20.158;2023-08-31T03:16:21;10.10;;;8.20;;
55800;SDS011;41730;51.960;20.158;2023-08-31T03:18:53;8.90;;;7.80;;
55800;SDS011;41730;51.960;20.158;2023-08-31T03:21:25;10.40;;;8.40;;
55800;SDS011;41730;51.960;20.158;2023-08-31T03:23:58;10.60;;;8.70;;
55800;SDS011;41730;51.960;20.158;2023-08-31T03:26:54;13.10;;;9.50;;
55800;SDS011;41730;51.960;20.158;2023-08-31T03:29:54;10.10;;;8.50;;
55800;SDS011;41730;51.960;20.158;2023-08-31T03:33:03;11.50;;;9.70;;
55800;SDS011;41730;51.960;20.158;2023-08-31T03:36:13;13.80;;;9.80;;
55800;SDS011;41730;51.960;20.158;2023-08-31T03:39:23;11.60;;;9.40;;
55800;SDS011;41730;51.960;20.158;2023-08-31T03:42:10;11.70;;;9.40;;
55800;SDS011;41730;51.960;20.158;2023-08-31T03:45:18;11.40;;;9.40;;
55800;SDS011;41730;51.960;20.158;2023-08-31T03:48:12;10.40;;;8.70;;
55800;SDS011;41730;51.960;20.158;2023-08-31T03:50:59;11.20;;;8.50;;
55800;SDS011;41730;51.960;20.158;2023-08-31T03:53:34;10.90;;;9.40;;
55800;SDS011;41730;51.960;20.158;2023-08-31T03:56:06;13.30;;;9.20;;
55800;SDS011;41730;51.960;20.158;2023-08-31T03:59:02;11.40;;;8.70;;
55800;SDS011;41730;51.960;20.158;2023-08-31T04:01:35;10.40;;;8.60;;
55800;SDS011;41730;51.960;20.158;2023-08-31T04:04:09;10.10;;;8.40;;
55800;SDS011;41730;51.960;20.158;2023-08-31T04:06:41;12.20;;;8.10;;
55800;SDS011;41730;51.960;20.158;2023-08-31T04:09:17;9.80;;;7.80;;
55800;SDS011;41730;51.960;20.158;2023-08-31T04:11:50;11.50;;;8.10;;
55800;SDS011;41730;51.960;20.158;2023-08-31T04:14:23;10.70;;;7.90;;
55800;SDS011;41730;51.960;20.158;2023-08-31T04:16:55;9.60;;;7.40;;
55800;SDS011;41730;51.960;20.158;2023-08-31T04:19:27;11.60;;;8.10;;
55800;SDS011;41730;51.960;20.158;2023-08-31T04:22:00;13.30;;;8.80;;
55800;SDS011;41730;51.960;20.158;2023-08-31T04:24:33;11.40;;;8.00;;
55800;SDS011;41730;51.960;20.158;2023-08-31T04:30:00;10.20;;;7.40;;
55800;SDS011;41730;51.960;20.158;2023-08-31T04:32:57;10.20;;;7.60;;
55800;SDS011;41730;51.960;20.158;2023-08-31T04:35:29;9.20;;;7.60;;
55800;SDS011;41730;51.960;20.158;2023-08-31T04:38:02;9.50;;;7.80;;
55800;SDS011;41730;51.960;20.158;2023-08-31T04:40:34;10.60;;;7.70;;
55800;SDS011;41730;51.960;20.158;2023-08-31T04:43:08;12.50;;;7.90;;
55800;SDS011;41730;51.960;20.158;2023-08-31T04:45:41;12.00;;;7.40;;
55800;SDS011;41730;51.960;20.158;2023-08-31T04:48:12;9.10;;;7.30;;
55800;SDS011;41730;51.960;20.158;2023-08-31T04:50:44;8.30;;;7.20;;
55800;SDS011;41730;51.960;20.158;2023-08-31T04:53:16;10.20;;;7.60;;
55800;SDS011;41730;51.960;20.158;2023-08-31T04:55:47;9.30;;;7.60;;
55800;SDS011;41730;51.960;20.158;2023-08-31T04:58:19;9.70;;;7.80;;
55800;SDS011;41730;51.960;20.158;2023-08-31T05:00:51;8.50;;;6.90;;
55800;SDS011;41730;51.960;20.158;2023-08-31T05:03:23;9.70;;;7.40;;
55800;SDS011;41730;51.960;20.158;2023-08-31T05:05:55;8.60;;;6.90;;
55800;SDS011;41730;51.960;20.158;2023-08-31T05:08:49;8.90;;;6.90;;
55800;SDS011;41730;51.960;20.158;2023-08-31T05:11:21;9.00;;;6.60;;
55800;SDS011;41730;51.960;20.158;2023-08-31T05:13:53;8.70;;;6.90;;
55800;SDS011;41730;51.960;20.158;2023-08-31T05:16:24;7.70;;;6.50;;
55800;SDS011;41730;51.960;20.158;2023-08-31T05:18:56;9.60;;;6.70;;
55800;SDS011;41730;51.960;20.158;2023-08-31T05:21:28;10.30;;;7.10;;
55800;SDS011;41730;51.960;20.158;2023-08-31T05:24:00;9.30;;;7.20;;
55800;SDS011;41730;51.960;20.158;2023-08-31T05:26:32;8.50;;;6.40;;
55800;SDS011;41730;51.960;20.158;2023-08-31T05:29:03;8.80;;;6.40;;
55800;SDS011;41730;51.960;20.158;2023-08-31T05:34:28;8.90;;;5.90;;
55800;SDS011;41730;51.960;20.158;2023-08-31T05:37:03;7.50;;;6.10;;
55800;SDS011;41730;51.960;20.158;2023-08-31T05:39:58;6.70;;;5.60;;
55800;SDS011;41730;51.960;20.158;2023-08-31T05:42:34;8.40;;;5.30;;
55800;SDS011;41730;51.960;20.158;2023-08-31T05:45:07;8.60;;;6.20;;
55800;SDS011;41730;51.960;20.158;2023-08-31T05:47:40;7.00;;;5.20;;
55800;SDS011;41730;51.960;20.158;2023-08-31T05:50:13;7.20;;;5.90;;
55800;SDS011;41730;51.960;20.158;2023-08-31T05:55:17;6.50;;;4.60;;
55800;SDS011;41730;51.960;20.158;2023-08-31T05:57:48;6.20;;;4.40;;
55800;SDS011;41730;51.960;20.158;2023-08-31T06:00:25;6.40;;;4.50;;
55800;SDS011;41730;51.960;20.158;2023-08-31T06:02:57;6.40;;;4.80;;
55800;SDS011;41730;51.960;20.158;2023-08-31T06:05:29;6.90;;;4.70;;
55800;SDS011;41730;51.960;20.158;2023-08-31T06:08:00;6.30;;;4.50;;
55800;SDS011;41730;51.960;20.158;2023-08-31T06:10:33;7.60;;;4.70;;
55800;SDS011;41730;51.960;20.158;2023-08-31T06:13:05;6.70;;;5.00;;
55800;SDS011;41730;51.960;20.158;2023-08-31T06:15:37;7.30;;;5.90;;
55800;SDS011;41730;51.960;20.158;2023-08-31T06:18:08;6.00;;;4.60;;
55800;SDS011;41730;51.960;20.158;2023-08-31T06:21:05;5.80;;;4.60;;
55800;SDS011;41730;51.960;20.158;2023-08-31T06:23:37;9.10;;;5.20;;
55800;SDS011;41730;51.960;20.158;2023-08-31T06:29:04;6.20;;;4.80;;
55800;SDS011;41730;51.960;20.158;2023-08-31T06:31:36;6.10;;;4.50;;
55800;SDS011;41730;51.960;20.158;2023-08-31T06:34:08;6.60;;;4.10;;
55800;SDS011;41730;51.960;20.158;2023-08-31T06:37:04;8.40;;;4.90;;
55800;SDS011;41730;51.960;20.158;2023-08-31T06:39:36;7.60;;;4.70;;
55800;SDS011;41730;51.960;20.158;2023-08-31T06:42:09;4.80;;;3.90;;
55800;SDS011;41730;51.960;20.158;2023-08-31T06:44:41;5.90;;;4.30;;
55800;SDS011;41730;51.960;20.158;2023-08-31T06:47:13;5.10;;;3.60;;
55800;SDS011;41730;51.960;20.158;2023-08-31T06:49:46;5.80;;;4.20;;
55800;SDS011;41730;51.960;20.158;2023-08-31T06:52:18;4.50;;;3.50;;
55800;SDS011;41730;51.960;20.158;2023-08-31T06:54:56;5.60;;;4.00;;
55800;SDS011;41730;51.960;20.158;2023-08-31T06:57:28;6.80;;;3.80;;
55800;SDS011;41730;51.960;20.158;2023-08-31T07:00:00;4.30;;;3.60;;
55800;SDS011;41730;51.960;20.158;2023-08-31T07:02:36;5.80;;;3.90;;
55800;SDS011;41730;51.960;20.158;2023-08-31T07:05:09;5.60;;;4.10;;
55800;SDS011;41730;51.960;20.158;2023-08-31T07:07:41;5.20;;;3.50;;
55800;SDS011;41730;51.960;20.158;2023-08-31T07:10:13;6.00;;;3.70;;
55800;SDS011;41730;51.960;20.158;2023-08-31T07:12:45;4.40;;;2.80;;
55800;SDS011;41730;51.960;20.158;2023-08-31T07:15:17;6.10;;;3.50;;
55800;SDS011;41730;51.960;20.158;2023-08-31T07:17:50;4.60;;;2.70;;
55800;SDS011;41730;51.960;20.158;2023-08-31T07:20:22;5.70;;;3.10;;
55800;SDS011;41730;51.960;20.158;2023-08-31T07:22:55;3.30;;;2.40;;
55800;SDS011;41730;51.960;20.158;2023-08-31T07:25:28;5.60;;;3.00;;
55800;SDS011;41730;51.960;20.158;2023-08-31T07:28:01;4.90;;;3.30;;
55800;SDS011;41730;51.960;20.158;2023-08-31T07:31:04;4.60;;;3.80;;
55800;SDS011;41730;51.960;20.158;2023-08-31T07:34:00;3.00;;;2.70;;
55800;SDS011;41730;51.960;20.158;2023-08-31T07:37:00;3.50;;;2.80;;
55800;SDS011;41730;51.960;20.158;2023-08-31T07:40:20;4.80;;;2.80;;
55800;SDS011;41730;51.960;20.158;2023-08-31T07:42:53;3.70;;;3.30;;
55800;SDS011;41730;51.960;20.158;2023-08-31T07:45:25;5.00;;;3.10;;
55800;SDS011;41730;51.960;20.158;2023-08-31T07:48:20;5.60;;;3.70;;
55800;SDS011;41730;51.960;20.158;2023-08-31T07:51:17;6.00;;;3.80;;
55800;SDS011;41730;51.960;20.158;2023-08-31T07:54:20;4.40;;;3.50;;
55800;SDS011;41730;51.960;20.158;2023-08-31T07:56:52;3.70;;;3.10;;
55800;SDS011;41730;51.960;20.158;2023-08-31T07:59:24;6.20;;;3.30;;
55800;SDS011;41730;51.960;20.158;2023-08-31T08:01:56;4.80;;;3.10;;
55800;SDS011;41730;51.960;20.158;2023-08-31T08:04:51;4.40;;;3.00;;
55800;SDS011;41730;51.960;20.158;2023-08-31T08:07:23;4.60;;;3.10;;
55800;SDS011;41730;51.960;20.158;2023-08-31T08:09:55;5.20;;;3.50;;
55800;SDS011;41730;51.960;20.158;2023-08-31T08:12:37;4.70;;;3.40;;
55800;SDS011;41730;51.960;20.158;2023-08-31T08:15:12;6.00;;;3.40;;
55800;SDS011;41730;51.960;20.158;2023-08-31T08:17:43;4.30;;;3.10;;
55800;SDS011;41730;51.960;20.158;2023-08-31T08:20:16;5.30;;;3.60;;
55800;SDS011;41730;51.960;20.158;2023-08-31T08:23:11;5.60;;;3.50;;
55800;SDS011;41730;51.960;20.158;2023-08-31T08:26:08;4.90;;;3.40;;
55800;SDS011;41730;51.960;20.158;2023-08-31T08:31:58;4.50;;;3.20;;
55800;SDS011;41730;51.960;20.158;2023-08-31T08:34:31;6.10;;;3.20;;
55800;SDS011;41730;51.960;20.158;2023-08-31T08:37:05;4.80;;;3.10;;
55800;SDS011;41730;51.960;20.158;2023-08-31T08:39:37;3.80;;;2.90;;
55800;SDS011;41730;51.960;20.158;2023-08-31T08:42:10;7.30;;;3.90;;
55800;SDS011;41730;51.960;20.158;2023-08-31T08:44:41;6.60;;;4.80;;
55800;SDS011;41730;51.960;20.158;2023-08-31T08:47:14;4.40;;;3.00;;
55800;SDS011;41730;51.960;20.158;2023-08-31T08:49:47;3.10;;;2.20;;
55800;SDS011;41730;51.960;20.158;2023-08-31T08:52:19;5.00;;;2.50;;
55800;SDS011;41730;51.960;20.158;2023-08-31T08:55:14;3.00;;;2.00;;
55800;SDS011;41730;51.960;20.158;2023-08-31T08:58:11;3.90;;;2.00;;
55800;SDS011;41730;51.960;20.158;2023-08-31T09:01:06;5.90;;;2.10;;
55800;SDS011;41730;51.960;20.158;2023-08-31T09:03:38;2.70;;;1.80;;
55800;SDS011;41730;51.960;20.158;2023-08-31T09:06:10;2.40;;;1.80;;
55800;SDS011;41730;51.960;20.158;2023-08-31T09:09:07;2.60;;;1.60;;
55800;SDS011;41730;51.960;20.158;2023-08-31T09:12:07;2.50;;;1.90;;
55800;SDS011;41730;51.960;20.158;2023-08-31T09:14:40;3.20;;;1.90;;
55800;SDS011;41730;51.960;20.158;2023-08-31T09:17:11;3.40;;;2.30;;
55800;SDS011;41730;51.960;20.158;2023-08-31T09:23:12;4.70;;;2.40;;
55800;SDS011;41730;51.960;20.158;2023-08-31T09:26:07;3.50;;;2.40;;
55800;SDS011;41730;51.960;20.158;2023-08-31T09:28:41;4.30;;;2.40;;
55800;SDS011;41730;51.960;20.158;2023-08-31T09:31:14;2.80;;;2.10;;
55800;SDS011;41730;51.960;20.158;2023-08-31T09:34:10;4.60;;;2.40;;
55800;SDS011;41730;51.960;20.158;2023-08-31T09:36:42;3.20;;;2.50;;
55800;SDS011;41730;51.960;20.158;2023-08-31T09:39:14;3.30;;;2.20;;
55800;SDS011;41730;51.960;20.158;2023-08-31T09:41:55;3.70;;;2.50;;
55800;SDS011;41730;51.960;20.158;2023-08-31T09:44:27;5.00;;;2.80;;
55800;SDS011;41730;51.960;20.158;2023-08-31T09:46:59;4.50;;;2.40;;
55800;SDS011;41730;51.960;20.158;2023-08-31T09:49:56;4.60;;;3.00;;
55800;SDS011;41730;51.960;20.158;2023-08-31T09:52:28;3.30;;;2.30;;
55800;SDS011;41730;51.960;20.158;2023-08-31T09:54:59;3.60;;;2.60;;
55800;SDS011;41730;51.960;20.158;2023-08-31T09:57:58;5.00;;;3.20;;
55800;SDS011;41730;51.960;20.158;2023-08-31T10:03:12;4.90;;;2.90;;
55800;SDS011;41730;51.960;20.158;2023-08-31T10:06:08;5.30;;;2.80;;
55800;SDS011;41730;51.960;20.158;2023-08-31T10:09:05;4.80;;;2.80;;
55800;SDS011;41730;51.960;20.158;2023-08-31T10:11:39;4.70;;;3.20;;
55800;SDS011;41730;51.960;20.158;2023-08-31T10:14:11;5.80;;;2.80;;
55800;SDS011;41730;51.960;20.158;2023-08-31T10:17:08;5.40;;;3.10;;
55800;SDS011;41730;51.960;20.158;2023-08-31T10:20:05;6.70;;;3.30;;
55800;SDS011;41730;51.960;20.158;2023-08-31T10:22:39;6.30;;;2.90;;
55800;SDS011;41730;51.960;20.158;2023-08-31T10:25:11;4.00;;;2.80;;
55800;SDS011;41730;51.960;20.158;2023-08-31T10:27:43;5.40;;;2.60;;
55800;SDS011;41730;51.960;20.158;2023-08-31T10:33:22;4.40;;;2.80;;
55800;SDS011;41730;51.960;20.158;2023-08-31T10:35:56;5.60;;;2.80;;
55800;SDS011;41730;51.960;20.158;2023-08-31T10:38:28;5.50;;;2.90;;
55800;SDS011;41730;51.960;20.158;2023-08-31T10:41:21;3.60;;;2.30;;
55800;SDS011;41730;51.960;20.158;2023-08-31T10:43:54;3.70;;;2.60;;
55800;SDS011;41730;51.960;20.158;2023-08-31T10:46:30;5.30;;;2.90;;
55800;SDS011;41730;51.960;20.158;2023-08-31T10:49:12;4.50;;;2.50;;
55800;SDS011;41730;51.960;20.158;2023-08-31T10:51:45;3.70;;;2.50;;
55800;SDS011;41730;51.960;20.158;2023-08-31T10:54:22;3.50;;;2.60;;
55800;SDS011;41730;51.960;20.158;2023-08-31T10:56:56;3.40;;;2.20;;
55800;SDS011;41730;51.960;20.158;2023-08-31T10:59:42;4.60;;;2.80;;
55800;SDS011;41730;51.960;20.158;2023-08-31T11:02:29;5.10;;;3.10;;
55800;SDS011;41730;51.960;20.158;2023-08-31T11:05:05;6.80;;;2.70;;
55800;SDS011;41730;51.960;20.158;2023-08-31T11:07:39;3.60;;;2.50;;
55800;SDS011;41730;51.960;20.158;2023-08-31T11:10:16;3.90;;;2.40;;
55800;SDS011;41730;51.960;20.158;2023-08-31T11:12:50;4.20;;;2.80;;
55800;SDS011;41730;51.960;20.158;2023-08-31T11:15:24;3.80;;;2.80;;
55800;SDS011;41730;51.960;20.158;2023-08-31T11:17:58;3.60;;;2.40;;
55800;SDS011;41730;51.960;20.158;2023-08-31T11:20:30;3.10;;;2.40;;
55800;SDS011;41730;51.960;20.158;2023-08-31T11:23:02;3.90;;;2.40;;
55800;SDS011;41730;51.960;20.158;2023-08-31T11:25:34;3.20;;;2.70;;
55800;SDS011;41730;51.960;20.158;2023-08-31T11:28:07;4.90;;;2.40;;
55800;SDS011;41730;51.960;20.158;2023-08-31T11:31:02;3.90;;;2.60;;
55800;SDS011;41730;51.960;20.158;2023-08-31T11:33:34;2.90;;;2.30;;
55800;SDS011;41730;51.960;20.158;2023-08-31T11:36:06;4.10;;;2.40;;
55800;SDS011;41730;51.960;20.158;2023-08-31T11:38:45;3.40;;;2.30;;
55800;SDS011;41730;51.960;20.158;2023-08-31T11:41:19;4.20;;;2.40;;
55800;SDS011;41730;51.960;20.158;2023-08-31T11:44:14;3.30;;;2.20;;
55800;SDS011;41730;51.960;20.158;2023-08-31T11:46:47;2.70;;;2.10;;
55800;SDS011;41730;51.960;20.158;2023-08-31T11:49:19;3.10;;;2.10;;
55800;SDS011;41730;51.960;20.158;2023-08-31T11:51:51;4.70;;;2.60;;
55800;SDS011;41730;51.960;20.158;2023-08-31T11:54:25;3.20;;;2.30;;
55800;SDS011;41730;51.960;20.158;2023-08-31T11:57:20;4.00;;;2.60;;
55800;SDS011;41730;51.960;20.158;2023-08-31T11:59:56;3.40;;;2.00;;
55800;SDS011;41730;51.960;20.158;2023-08-31T12:02:34;3.70;;;2.10;;
55800;SDS011;41730;51.960;20.158;2023-08-31T12:05:06;3.70;;;2.40;;
55800;SDS011;41730;51.960;20.158;2023-08-31T12:07:40;3.00;;;2.20;;
55800;SDS011;41730;51.960;20.158;2023-08-31T12:10:14;3.20;;;2.40;;
55800;SDS011;41730;51.960;20.158;2023-08-31T12:12:49;3.30;;;2.30;;
55800;SDS011;41730;51.960;20.158;2023-08-31T12:15:24;4.20;;;2.40;;
55800;SDS011;41730;51.960;20.158;2023-08-31T12:18:07;3.10;;;2.00;;
55800;SDS011;41730;51.960;20.158;2023-08-31T12:20:46;3.00;;;1.90;;
55800;SDS011;41730;51.960;20.158;2023-08-31T12:23:20;3.90;;;2.00;;
55800;SDS011;41730;51.960;20.158;2023-08-31T12:25:52;4.10;;;2.20;;
55800;SDS011;41730;51.960;20.158;2023-08-31T12:28:25;4.40;;;2.10;;
55800;SDS011;41730;51.960;20.158;2023-08-31T12:30:57;4.80;;;2.30;;
55800;SDS011;41730;51.960;20.158;2023-08-31T12:33:29;3.80;;;2.50;;
55800;SDS011;41730;51.960;20.158;2023-08-31T12:36:01;4.30;;;2.10;;
55800;SDS011;41730;51.960;20.158;2023-08-31T12:38:56;3.80;;;2.10;;
55800;SDS011;41730;51.960;20.158;2023-08-31T12:41:29;4.30;;;2.40;;
55800;SDS011;41730;51.960;20.158;2023-08-31T12:44:01;4.60;;;2.40;;
55800;SDS011;41730;51.960;20.158;2023-08-31T12:46:33;3.50;;;2.30;;
55800;SDS011;41730;51.960;20.158;2023-08-31T12:49:05;5.50;;;2.00;;
55800;SDS011;41730;51.960;20.158;2023-08-31T12:51:37;3.30;;;2.30;;
55800;SDS011;41730;51.960;20.158;2023-08-31T12:54:10;3.20;;;2.10;;
55800;SDS011;41730;51.960;20.158;2023-08-31T12:56:42;4.50;;;2.40;;
55800;SDS011;41730;51.960;20.158;2023-08-31T12:59:15;4.80;;;2.60;;
55800;SDS011;41730;51.960;20.158;2023-08-31T13:01:46;3.90;;;2.00;;
55800;SDS011;41730;51.960;20.158;2023-08-31T13:04:18;3.90;;;2.40;;
55800;SDS011;41730;51.960;20.158;2023-08-31T13:06:50;4.90;;;2.80;;
55800;SDS011;41730;51.960;20.158;2023-08-31T13:09:24;5.80;;;2.90;;
55800;SDS011;41730;51.960;20.158;2023-08-31T13:11:56;5.20;;;3.40;;
55800;SDS011;41730;51.960;20.158;2023-08-31T13:14:28;5.30;;;3.30;;
55800;SDS011;41730;51.960;20.158;2023-08-31T13:16:59;6.80;;;3.50;;
55800;SDS011;41730;51.960;20.158;2023-08-31T13:19:31;5.40;;;3.40;;
55800;SDS011;41730;51.960;20.158;2023-08-31T13:22:03;6.40;;;3.70;;
55800;SDS011;41730;51.960;20.158;2023-08-31T13:24:35;6.40;;;4.00;;
55800;SDS011;41730;51.960;20.158;2023-08-31T13:27:07;7.80;;;4.80;;
55800;SDS011;41730;51.960;20.158;2023-08-31T13:33:00;8.00;;;5.70;;
55800;SDS011;41730;51.960;20.158;2023-08-31T13:35:32;9.40;;;6.30;;
55800;SDS011;41730;51.960;20.158;2023-08-31T13:38:05;9.30;;;7.20;;
55800;SDS011;41730;51.960;20.158;2023-08-31T13:40:40;7.40;;;5.90;;
55800;SDS011;41730;51.960;20.158;2023-08-31T13:43:16;8.60;;;7.80;;
55800;SDS011;41730;51.960;20.158;2023-08-31T13:45:52;8.80;;;7.80;;
55800;SDS011;41730;51.960;20.158;2023-08-31T13:48:25;10.20;;;7.90;;
55800;SDS011;41730;51.960;20.158;2023-08-31T13:51:01;10.00;;;9.00;;
55800;SDS011;41730;51.960;20.158;2023-08-31T13:53:59;11.20;;;9.40;;
55800;SDS011;41730;51.960;20.158;2023-08-31T13:56:34;12.10;;;10.10;;
55800;SDS011;41730;51.960;20.158;2023-08-31T13:59:06;10.60;;;9.10;;
55800;SDS011;41730;51.960;20.158;2023-08-31T14:01:39;8.80;;;7.90;;
55800;SDS011;41730;51.960;20.158;2023-08-31T14:04:12;10.80;;;9.70;;
55800;SDS011;41730;51.960;20.158;2023-08-31T14:06:45;11.10;;;10.10;;
55800;SDS011;41730;51.960;20.158;2023-08-31T14:09:21;11.50;;;10.10;;
55800;SDS011;41730;51.960;20.158;2023-08-31T14:12:21;10.10;;;9.10;;
55800;SDS011;41730;51.960;20.158;2023-08-31T14:15:19;10.70;;;9.60;;
55800;SDS011;41730;51.960;20.158;2023-08-31T14:17:52;10.30;;;9.30;;
55800;SDS011;41730;51.960;20.158;2023-08-31T14:20:24;9.30;;;8.40;;
55800;SDS011;41730;51.960;20.158;2023-08-31T14:22:57;8.90;;;8.00;;
55800;SDS011;41730;51.960;20.158;2023-08-31T14:25:29;7.90;;;7.20;;
55800;SDS011;41730;51.960;20.158;2023-08-31T14:28:03;7.90;;;7.20;;
55800;SDS011;41730;51.960;20.158;2023-08-31T14:30:45;7.80;;;7.10;;
55800;SDS011;41730;51.960;20.158;2023-08-31T14:33:57;7.80;;;7.10;;
55800;SDS011;41730;51.960;20.158;2023-08-31T14:36:44;8.60;;;7.00;;
55800;SDS011;41730;51.960;20.158;2023-08-31T14:41:53;6.50;;;5.90;;
55800;SDS011;41730;51.960;20.158;2023-08-31T14:44:29;6.20;;;4.60;;
55800;SDS011;41730;51.960;20.158;2023-08-31T14:47:02;6.60;;;4.70;;
55800;SDS011;41730;51.960;20.158;2023-08-31T14:49:41;4.80;;;4.30;;
55800;SDS011;41730;51.960;20.158;2023-08-31T14:52:14;5.10;;;4.70;;
55800;SDS011;41730;51.960;20.158;2023-08-31T14:55:11;4.90;;;4.10;;
55800;SDS011;41730;51.960;20.158;2023-08-31T14:57:47;5.00;;;4.50;;
55800;SDS011;41730;51.960;20.158;2023-08-31T15:00:25;5.10;;;4.60;;
55800;SDS011;41730;51.960;20.158;2023-08-31T15:03:04;4.60;;;3.80;;
55800;SDS011;41730;51.960;20.158;2023-08-31T15:05:38;4.40;;;4.00;;
55800;SDS011;41730;51.960;20.158;2023-08-31T15:11:11;4.20;;;3.40;;
55800;SDS011;41730;51.960;20.158;2023-08-31T15:16:17;3.70;;;3.20;;
55800;SDS011;41730;51.960;20.158;2023-08-31T15:19:16;3.70;;;3.40;;
55800;SDS011;41730;51.960;20.158;2023-08-31T15:21:50;4.10;;;3.20;;
55800;SDS011;41730;51.960;20.158;2023-08-31T15:24:23;3.30;;;2.90;;
55800;SDS011;41730;51.960;20.158;2023-08-31T15:26:57;3.60;;;3.20;;
55800;SDS011;41730;51.960;20.158;2023-08-31T15:29:30;5.60;;;3.00;;
55800;SDS011;41730;51.960;20.158;2023-08-31T15:35:00;3.60;;;2.50;;
55800;SDS011;41730;51.960;20.158;2023-08-31T15:37:34;4.80;;;2.50;;
55800;SDS011;41730;51.960;20.158;2023-08-31T15:40:09;3.00;;;2.10;;
55800;SDS011;41730;51.960;20.158;2023-08-31T15:43:07;3.60;;;2.40;;
55800;SDS011;41730;51.960;20.158;2023-08-31T15:45:39;4.60;;;2.30;;
55800;SDS011;41730;51.960;20.158;2023-08-31T15:48:17;4.30;;;2.40;;
55800;SDS011;41730;51.960;20.158;2023-08-31T15:51:13;2.80;;;2.30;;
55800;SDS011;41730;51.960;20.158;2023-08-31T15:53:48;2.80;;;2.10;;
55800;SDS011;41730;51.960;20.158;2023-08-31T15:56:20;3.10;;;2.20;;
55800;SDS011;41730;51.960;20.158;2023-08-31T15:58:54;4.20;;;2.60;;
55800;SDS011;41730;51.960;20.158;2023-08-31T16:01:28;4.70;;;2.30;;
55800;SDS011;41730;51.960;20.158;2023-08-31T16:04:00;2.90;;;2.10;;
55800;SDS011;41730;51.960;20.158;2023-08-31T16:06:34;3.50;;;2.20;;
55800;SDS011;41730;51.960;20.158;2023-08-31T16:09:08;3.80;;;2.30;;
55800;SDS011;41730;51.960;20.158;2023-08-31T16:11:41;2.90;;;2.10;;
55800;SDS011;41730;51.960;20.158;2023-08-31T16:14:14;3.90;;;2.00;;
55800;SDS011;41730;51.960;20.158;2023-08-31T16:16:49;3.90;;;2.10;;
55800;SDS011;41730;51.960;20.158;2023-08-31T16:19:24;4.00;;;2.10;;